Time;durP1;ratioP1;P1;durP2;ratioP2;P2;SDS_P1;SDS_P2;PMS_P1;PMS_P2;Temp;Humidity;BMP_temperature;BMP_pressure;BME280_temperature;BME280_humidity;BME280_pressure;Samples;Min_cycle;Max_cycle;Signal;HPM_P1;HPM_P2
2023/10/12 00:01:57;;;;;;;17.15;9.95;;;;;;;;;;5071997;28;20822;-82
2023/10/12 00:04:25;;;;;;;12.77;10.00;;;;;;;;;;5072091;28;20195;-82
2023/10/12 00:06:54;;;;;;;18.05;9.63;;;;;;;;;;5072130;28;20195;-82
2023/10/12 00:09:25;;;;;;;19.73;10.25;;;;;;;;;;5071898;28;20252;-82
2023/10/12 00:11:57;;;;;;;16.33;10.45;;;;;;;;;;5071334;28;20213;-82
2023/10/12 00:14:26;;;;;;;16.48;9.70;;;;;;;;;;5071709;28;20199;-82
2023/10/12 00:16:55;;;;;;;15.52;10.00;;;;;;;;;;5072160;28;20203;-82
2023/10/12 00:19:23;;;;;;;16.63;10.45;;;;;;;;;;5071713;28;20209;-80
2023/10/12 00:21:50;;;;;;;16.65;10.52;;;;;;;;;;5071919;28;20191;-82
2023/10/12 00:24:19;;;;;;;18.17;10.25;;;;;;;;;;5071752;28;20234;-81
2023/10/12 00:26:46;;;;;;;18.20;10.30;;;;;;;;;;5071725;28;20234;-82
2023/10/12 00:29:13;;;;;;;18.63;10.90;;;;;;;;;;5071234;28;20195;-81
2023/10/12 00:31:43;;;;;;;16.88;10.73;;;;;;;;;;5071948;28;20744;-81
2023/10/12 00:34:11;;;;;;;18.05;10.73;;;;;;;;;;5071455;28;20237;-81
2023/10/12 00:36:40;;;;;;;17.60;11.15;;;;;;;;;;5071706;28;20202;-81
2023/10/12 00:39:10;;;;;;;16.25;10.88;;;;;;;;;;5071288;28;20636;-81
2023/10/12 00:41:44;;;;;;;20.00;10.82;;;;;;;;;;5070768;28;20203;-81
2023/10/12 00:44:12;;;;;;;17.23;10.75;;;;;;;;;;5071697;28;20206;-81
2023/10/12 00:46:58;;;;;;;15.27;10.48;;;;;;;;;;5071624;28;20278;-81
2023/10/12 00:49:30;;;;;;;20.35;11.90;;;;;;;;;;5071485;28;20608;-82
2023/10/12 00:52:08;;;;;;;15.15;11.23;;;;;;;;;;5071588;28;20201;-82
2023/10/12 00:54:48;;;;;;;17.33;11.13;;;;;;;;;;5071547;28;20199;-81
2023/10/12 00:57:17;;;;;;;19.30;10.73;;;;;;;;;;5071028;28;20226;-81
2023/10/12 00:59:46;;;;;;;16.88;10.90;;;;;;;;;;5071489;28;20195;-81
2023/10/12 01:02:16;;;;;;;16.27;10.98;;;;;;;;;;5071436;28;20283;-82
2023/10/12 01:04:44;;;;;;;21.67;12.10;;;;;;;;;;5071320;28;20280;-82
2023/10/12 01:07:19;;;;;;;19.23;10.80;;;;;;;;;;5071619;28;20222;-81
2023/10/12 01:09:48;;;;;;;15.98;10.60;;;;;;;;;;5070967;28;20197;-82
2023/10/12 01:12:17;;;;;;;16.65;11.23;;;;;;;;;;5071298;28;20217;-82
2023/10/12 01:14:47;;;;;;;18.13;11.60;;;;;;;;;;5070281;28;20199;-81
2023/10/12 01:17:18;;;;;;;18.73;12.00;;;;;;;;;;5067294;28;20203;-80
2023/10/12 01:19:48;;;;;;;19.98;11.27;;;;;;;;;;5074965;28;20223;-81
2023/10/12 01:22:25;;;;;;;16.08;11.20;;;;;;;;;;5075059;28;20665;-82
2023/10/12 01:24:59;;;;;;;18.77;11.85;;;;;;;;;;5075115;28;20199;-81
2023/10/12 01:27:27;;;;;;;17.45;11.32;;;;;;;;;;5075352;28;20662;-81
2023/10/12 01:29:58;;;;;;;18.23;11.95;;;;;;;;;;5074959;28;20671;-80
2023/10/12 01:32:29;;;;;;;18.77;11.43;;;;;;;;;;5074784;28;20735;-81
2023/10/12 01:35:04;;;;;;;20.95;12.00;;;;;;;;;;5075253;28;20199;-81
2023/10/12 01:37:41;;;;;;;18.55;11.68;;;;;;;;;;5074863;28;20199;-82
2023/10/12 01:40:12;;;;;;;17.63;13.02;;;;;;;;;;5074525;28;20645;-82
2023/10/12 01:42:49;;;;;;;19.35;11.93;;;;;;;;;;5074915;28;20191;-82
2023/10/12 01:45:19;;;;;;;20.95;12.88;;;;;;;;;;5074985;28;20199;-82
2023/10/12 01:47:51;;;;;;;20.33;11.95;;;;;;;;;;5074550;28;20288;-82
2023/10/12 01:50:19;;;;;;;17.10;12.02;;;;;;;;;;5074527;28;20244;-81
2023/10/12 01:52:52;;;;;;;22.55;12.93;;;;;;;;;;5074587;28;20192;-82
2023/10/12 01:55:28;;;;;;;17.38;12.23;;;;;;;;;;5074168;28;20205;-80
2023/10/12 01:57:55;;;;;;;16.88;12.73;;;;;;;;;;5074589;28;20199;-81
2023/10/12 02:00:26;;;;;;;17.35;12.32;;;;;;;;;;5074431;28;20227;-81
2023/10/12 02:03:00;;;;;;;17.33;12.07;;;;;;;;;;5074221;28;20206;-81
2023/10/12 02:05:30;;;;;;;16.83;12.48;;;;;;;;;;5074379;28;20195;-81
2023/10/12 02:08:05;;;;;;;22.30;13.43;;;;;;;;;;5073649;28;20673;-81
2023/10/12 02:10:44;;;;;;;20.65;12.23;;;;;;;;;;5074619;28;20248;-82
2023/10/12 02:13:11;;;;;;;22.38;13.18;;;;;;;;;;5074481;28;20610;-82
2023/10/12 02:15:39;;;;;;;21.42;13.10;;;;;;;;;;5074152;28;20230;-81
2023/10/12 02:18:13;;;;;;;19.50;13.02;;;;;;;;;;5074068;28;20727;-82
2023/10/12 02:20:47;;;;;;;21.92;13.70;;;;;;;;;;5073971;28;20210;-82
2023/10/12 02:23:16;;;;;;;18.75;12.38;;;;;;;;;;5073985;28;20543;-81
2023/10/12 02:25:50;;;;;;;21.02;13.52;;;;;;;;;;5072837;28;20226;-81
2023/10/12 02:28:22;;;;;;;19.27;13.38;;;;;;;;;;5073624;28;20271;-81
2023/10/12 02:30:54;;;;;;;21.25;13.38;;;;;;;;;;5073651;28;20630;-81
2023/10/12 02:33:27;;;;;;;22.08;13.60;;;;;;;;;;5073604;28;20207;-80
2023/10/12 02:35:54;;;;;;;20.10;13.40;;;;;;;;;;5073326;28;20195;-81
2023/10/12 02:38:27;;;;;;;23.77;13.65;;;;;;;;;;5060483;28;20207;-82
2023/10/12 02:40:58;;;;;;;17.92;13.45;;;;;;;;;;5073392;28;20290;-81
2023/10/12 02:43:28;;;;;;;19.35;14.02;;;;;;;;;;5073483;28;20191;-81
2023/10/12 02:46:01;;;;;;;20.88;13.93;;;;;;;;;;5073679;28;20199;-81
2023/10/12 02:48:29;;;;;;;20.52;13.68;;;;;;;;;;5073397;28;20269;-81
2023/10/12 02:51:01;;;;;;;20.50;13.13;;;;;;;;;;5073838;28;20352;-80
2023/10/12 02:53:30;;;;;;;24.08;13.85;;;;;;;;;;5073136;28;20203;-80
2023/10/12 02:56:01;;;;;;;22.65;13.27;;;;;;;;;;5073626;28;20244;-81
2023/10/12 02:58:29;;;;;;;22.63;13.75;;;;;;;;;;5073418;28;20199;-81
2023/10/12 03:00:56;;;;;;;22.80;13.98;;;;;;;;;;5073219;28;20368;-80
2023/10/12 03:03:25;;;;;;;18.60;13.65;;;;;;;;;;5073261;28;20683;-81
2023/10/12 03:05:54;;;;;;;19.30;13.45;;;;;;;;;;5073052;28;20226;-81
2023/10/12 03:08:22;;;;;;;18.58;13.32;;;;;;;;;;5072972;28;20647;-81
2023/10/12 03:13:55;;;;;;;20.77;14.45;;;;;;;;;;5010982;28;20228;-81
2023/10/12 03:16:22;;;;;;;20.15;14.48;;;;;;;;;;5010961;28;20208;-81
2023/10/12 03:18:57;;;;;;;22.05;14.20;;;;;;;;;;5011113;28;20201;-81
2023/10/12 03:21:27;;;;;;;22.75;13.88;;;;;;;;;;5010570;28;20219;-80
2023/10/12 03:23:56;;;;;;;19.20;14.07;;;;;;;;;;4994748;28;20193;-81
2023/10/12 03:26:26;;;;;;;23.10;15.35;;;;;;;;;;5010933;28;20224;-82
2023/10/12 03:29:01;;;;;;;23.13;14.35;;;;;;;;;;5010794;28;20228;-81
2023/10/12 03:31:35;;;;;;;21.27;15.15;;;;;;;;;;5010594;28;20288;-81
2023/10/12 03:34:16;;;;;;;21.40;14.43;;;;;;;;;;5010523;28;20582;-81
2023/10/12 03:36:47;;;;;;;23.58;15.25;;;;;;;;;;5010265;28;20201;-79
2023/10/12 03:39:25;;;;;;;22.17;14.90;;;;;;;;;;5010621;28;20232;-81
2023/10/12 03:41:57;;;;;;;21.88;15.02;;;;;;;;;;5010599;28;20204;-81
2023/10/12 03:44:41;;;;;;;21.23;14.32;;;;;;;;;;5010540;28;20201;-80
2023/10/12 03:47:14;;;;;;;21.45;14.73;;;;;;;;;;5010434;28;20193;-81
2023/10/12 03:49:55;;;;;;;20.10;14.98;;;;;;;;;;5044573;28;20249;-81
2023/10/12 03:52:29;;;;;;;23.05;15.27;;;;;;;;;;5072546;28;20194;-81
2023/10/12 03:55:16;;;;;;;26.25;15.55;;;;;;;;;;5072461;28;20199;-81
2023/10/12 03:57:50;;;;;;;23.88;15.15;;;;;;;;;;5072128;28;20663;-81
2023/10/12 04:00:25;;;;;;;21.85;14.90;;;;;;;;;;5072326;28;20260;-81
2023/10/12 04:02:56;;;;;;;23.77;15.68;;;;;;;;;;5072180;28;20195;-81
2023/10/12 04:05:36;;;;;;;23.02;15.10;;;;;;;;;;5071957;28;20230;-81
2023/10/12 04:08:19;;;;;;;21.42;15.80;;;;;;;;;;5071749;28;20194;-81
2023/10/12 04:16:27;;;;;;;23.77;14.60;;;;;;;;;;5071951;28;20225;-82
2023/10/12 04:19:03;;;;;;;25.48;15.52;;;;;;;;;;5071445;28;20207;-81
2023/10/12 04:21:36;;;;;;;23.52;15.10;;;;;;;;;;5071458;28;20205;-81
2023/10/12 04:27:09;;;;;;;23.05;14.43;;;;;;;;;;5072047;28;20205;-81
2023/10/12 04:29:39;;;;;;;21.23;15.18;;;;;;;;;;5071653;28;20234;-80
2023/10/12 04:32:15;;;;;;;28.08;15.23;;;;;;;;;;5071599;28;20199;-80
2023/10/12 04:34:49;;;;;;;22.90;15.52;;;;;;;;;;5071293;28;20242;-81
2023/10/12 04:37:22;;;;;;;23.88;15.02;;;;;;;;;;5072222;28;20199;-81
2023/10/12 04:39:56;;;;;;;23.98;14.68;;;;;;;;;;5071032;28;20714;-82
2023/10/12 04:42:26;;;;;;;25.42;15.75;;;;;;;;;;5071934;28;20272;-81
2023/10/12 04:45:03;;;;;;;26.95;15.60;;;;;;;;;;5071252;28;20293;-81
2023/10/12 04:47:30;;;;;;;24.25;14.98;;;;;;;;;;5070406;28;20191;-81
2023/10/12 04:50:00;;;;;;;25.73;15.38;;;;;;;;;;5071333;28;20325;-81
2023/10/12 04:52:32;;;;;;;22.77;15.52;;;;;;;;;;5071329;28;20201;-80
2023/10/12 04:55:06;;;;;;;28.55;15.70;;;;;;;;;;5071224;28;20616;-81
2023/10/12 04:57:34;;;;;;;25.27;15.77;;;;;;;;;;5071531;28;20204;-81
2023/10/12 05:00:17;;;;;;;25.55;14.88;;;;;;;;;;5071414;28;20191;-80
2023/10/12 05:03:04;;;;;;;25.67;15.27;;;;;;;;;;5071330;28;20191;-81
2023/10/12 05:08:24;;;;;;;30.67;15.57;;;;;;;;;;5009157;28;20213;-80
2023/10/12 05:10:51;;;;;;;23.58;15.43;;;;;;;;;;5009227;28;20204;-81
2023/10/12 05:13:20;;;;;;;21.42;14.82;;;;;;;;;;5009411;28;20324;-80
2023/10/12 05:16:04;;;;;;;30.67;15.82;;;;;;;;;;5009487;28;20220;-80
2023/10/12 05:18:32;;;;;;;25.17;15.10;;;;;;;;;;5008063;28;20201;-81
2023/10/12 05:21:00;;;;;;;24.10;15.00;;;;;;;;;;5008956;28;20197;-79
2023/10/12 05:23:29;;;;;;;21.88;15.52;;;;;;;;;;5009518;28;20204;-80
2023/10/12 05:26:09;;;;;;;26.30;14.80;;;;;;;;;;5009163;28;20201;-81
2023/10/12 05:28:38;;;;;;;22.27;14.65;;;;;;;;;;5009123;28;20302;-81
2023/10/12 05:31:13;;;;;;;25.65;15.25;;;;;;;;;;5008780;28;20205;-81
2023/10/12 05:34:00;;;;;;;26.48;15.18;;;;;;;;;;5008437;28;20208;-81
2023/10/12 05:36:28;;;;;;;19.27;13.43;;;;;;;;;;5009344;28;20311;-80
2023/10/12 05:39:11;;;;;;;21.33;14.40;;;;;;;;;;4994526;28;20214;-80
2023/10/12 05:41:39;;;;;;;21.70;13.82;;;;;;;;;;5007398;28;20213;-80
2023/10/12 05:44:13;;;;;;;24.63;14.48;;;;;;;;;;5027709;28;20287;-79
2023/10/12 05:46:44;;;;;;;23.45;14.75;;;;;;;;;;5070601;28;20229;-80
2023/10/12 05:49:13;;;;;;;25.52;13.52;;;;;;;;;;5069723;28;20837;-81
2023/10/12 05:51:43;;;;;;;19.95;13.63;;;;;;;;;;5070392;28;20336;-80
2023/10/12 05:54:15;;;;;;;23.83;13.32;;;;;;;;;;5070571;28;20348;-80
2023/10/12 05:56:43;;;;;;;26.40;14.57;;;;;;;;;;5070576;28;20663;-80
2023/10/12 05:59:12;;;;;;;20.33;13.35;;;;;;;;;;5072087;28;20195;-80
2023/10/12 06:01:39;;;;;;;22.77;14.43;;;;;;;;;;5074506;28;20205;-79
2023/10/12 06:04:08;;;;;;;24.63;13.70;;;;;;;;;;5074348;28;20222;-80
2023/10/12 06:06:41;;;;;;;24.60;13.48;;;;;;;;;;5074861;28;20222;-80
2023/10/12 06:09:12;;;;;;;20.83;12.20;;;;;;;;;;5074002;28;20318;-81
2023/10/12 06:11:41;;;;;;;26.25;14.20;;;;;;;;;;5074689;28;20209;-80
2023/10/12 06:14:09;;;;;;;24.73;13.73;;;;;;;;;;5073905;28;20299;-80
2023/10/12 06:16:40;;;;;;;22.83;12.98;;;;;;;;;;5074382;28;20191;-80
2023/10/12 06:19:18;;;;;;;22.60;13.18;;;;;;;;;;5074040;28;20202;-81
2023/10/12 06:21:45;;;;;;;28.10;14.07;;;;;;;;;;5074245;28;20218;-81
2023/10/12 06:24:20;;;;;;;26.67;13.88;;;;;;;;;;5074095;28;20676;-79
2023/10/12 06:26:47;;;;;;;23.90;13.68;;;;;;;;;;5073859;28;20226;-80
2023/10/12 06:29:24;;;;;;;23.60;13.77;;;;;;;;;;5073585;28;20326;-80
2023/10/12 06:31:54;;;;;;;24.38;13.18;;;;;;;;;;5073895;28;20740;-80
2023/10/12 06:34:23;;;;;;;19.85;13.52;;;;;;;;;;5074138;28;20203;-80
2023/10/12 06:36:57;;;;;;;21.83;13.02;;;;;;;;;;5074384;28;20221;-81
2023/10/12 06:42:26;;;;;;;19.92;12.65;;;;;;;;;;5074104;28;20210;-79
2023/10/12 06:44:52;;;;;;;24.30;13.10;;;;;;;;;;5073607;28;20202;-80
2023/10/12 06:47:40;;;;;;;22.98;12.55;;;;;;;;;;5074022;28;20203;-80
2023/10/12 06:50:14;;;;;;;21.45;12.07;;;;;;;;;;5073647;28;20320;-81
2023/10/12 06:52:42;;;;;;;24.63;13.48;;;;;;;;;;5073791;28;20234;-80
2023/10/12 06:55:09;;;;;;;21.77;12.27;;;;;;;;;;5073550;28;20223;-79
2023/10/12 06:57:42;;;;;;;29.85;13.13;;;;;;;;;;5073512;28;20231;-80
2023/10/12 07:00:33;;;;;;;26.40;12.45;;;;;;;;;;5073617;28;20195;-80
2023/10/12 07:03:00;;;;;;;24.00;13.10;;;;;;;;;;5073380;28;20278;-80
2023/10/12 07:05:33;;;;;;;23.52;12.98;;;;;;;;;;5073175;28;20290;-80
2023/10/12 07:08:02;;;;;;;25.50;12.93;;;;;;;;;;5073507;28;20207;-80
2023/10/12 07:10:29;;;;;;;24.25;12.55;;;;;;;;;;5072539;28;20234;-81
2023/10/12 07:13:03;;;;;;;27.05;12.52;;;;;;;;;;5072672;28;20222;-80
2023/10/12 07:15:40;;;;;;;19.67;12.30;;;;;;;;;;5073533;28;20191;-81
2023/10/12 07:18:14;;;;;;;20.52;12.68;;;;;;;;;;5073122;28;20195;-81
2023/10/12 07:20:45;;;;;;;23.55;13.18;;;;;;;;;;5073162;28;20793;-80
2023/10/12 07:23:20;;;;;;;25.25;12.50;;;;;;;;;;5073191;28;20687;-80
2023/10/12 07:25:50;;;;;;;21.98;13.32;;;;;;;;;;5073003;28;20194;-80
2023/10/12 07:28:19;;;;;;;26.75;13.32;;;;;;;;;;5072269;28;20667;-80
2023/10/12 07:33:30;;;;;;;24.77;13.55;;;;;;;;;;5072664;28;20195;-81
2023/10/12 07:36:08;;;;;;;27.88;13.70;;;;;;;;;;5073512;28;20627;-80
2023/10/12 07:38:36;;;;;;;29.20;12.90;;;;;;;;;;5073294;28;20203;-80
2023/10/12 07:41:05;;;;;;;28.20;12.60;;;;;;;;;;5072569;28;20252;-81
2023/10/12 07:43:32;;;;;;;24.92;12.63;;;;;;;;;;5072129;28;20191;-80
2023/10/12 07:46:09;;;;;;;26.80;12.93;;;;;;;;;;5072672;28;20199;-81
2023/10/12 07:48:42;;;;;;;25.40;12.93;;;;;;;;;;5072993;28;20746;-80
2023/10/12 07:51:16;;;;;;;28.13;13.48;;;;;;;;;;5070931;28;20243;-81
2023/10/12 07:53:43;;;;;;;23.67;13.48;;;;;;;;;;5072124;28;20197;-81
2023/10/12 07:56:15;;;;;;;26.08;12.73;;;;;;;;;;5070884;28;20214;-81
2023/10/12 07:58:43;;;;;;;26.73;12.73;;;;;;;;;;5072004;28;20651;-81
2023/10/12 08:01:38;;;;;;;24.85;13.23;;;;;;;;;;5072404;28;20298;-80
2023/10/12 08:04:09;;;;;;;24.60;12.80;;;;;;;;;;5072612;28;20198;-81
2023/10/12 08:06:42;;;;;;;22.45;12.60;;;;;;;;;;5072537;28;20566;-80
2023/10/12 08:09:22;;;;;;;24.30;13.00;;;;;;;;;;5072028;28;20235;-81
2023/10/12 08:11:49;;;;;;;23.98;12.70;;;;;;;;;;5072470;28;20199;-80
2023/10/12 08:14:39;;;;;;;24.00;13.32;;;;;;;;;;5072434;28;20283;-80
2023/10/12 08:22:46;;;;;;;26.10;14.13;;;;;;;;;;5000754;28;20706;-81
2023/10/12 08:25:15;;;;;;;24.17;13.52;;;;;;;;;;5009861;28;20701;-81
2023/10/12 08:27:52;;;;;;;24.33;13.45;;;;;;;;;;5010024;28;20247;-81
2023/10/12 08:30:23;;;;;;;25.88;13.25;;;;;;;;;;5010001;28;20232;-81
2023/10/12 08:32:59;;;;;;;24.73;14.02;;;;;;;;;;5010321;28;20697;-81
2023/10/12 08:35:39;;;;;;;30.17;13.68;;;;;;;;;;5009911;28;20197;-81
2023/10/12 08:38:12;;;;;;;31.20;13.25;;;;;;;;;;5009920;28;20197;-80
2023/10/12 08:40:53;;;;;;;25.08;12.18;;;;;;;;;;5009958;28;20201;-81
2023/10/12 08:43:34;;;;;;;20.65;11.95;;;;;;;;;;5009806;28;20708;-81
2023/10/12 08:46:06;;;;;;;25.98;13.23;;;;;;;;;;5009953;28;20201;-81
2023/10/12 08:48:35;;;;;;;21.20;12.23;;;;;;;;;;5010045;28;20212;-81
2023/10/12 08:51:09;;;;;;;20.35;11.98;;;;;;;;;;5009850;28;20268;-81
2023/10/12 08:53:40;;;;;;;21.55;10.63;;;;;;;;;;5025783;28;20244;-81
2023/10/12 08:56:08;;;;;;;19.58;11.70;;;;;;;;;;5071304;28;20198;-80
2023/10/12 08:58:42;;;;;;;21.35;11.00;;;;;;;;;;5071573;28;20730;-80
2023/10/12 09:01:10;;;;;;;21.88;11.18;;;;;;;;;;5071453;28;20206;-80
2023/10/12 09:03:44;;;;;;;20.40;11.38;;;;;;;;;;5072187;28;20231;-80
2023/10/12 09:08:57;;;;;;;20.80;10.57;;;;;;;;;;5070987;28;20753;-81
2023/10/12 09:11:33;;;;;;;14.90;9.55;;;;;;;;;;5071768;28;20317;-81
2023/10/12 09:14:00;;;;;;;19.95;10.73;;;;;;;;;;5071527;28;20205;-81
2023/10/12 09:16:29;;;;;;;21.38;10.38;;;;;;;;;;5071620;28;20195;-82
2023/10/12 09:18:59;;;;;;;16.75;10.70;;;;;;;;;;5071143;28;20282;-81
2023/10/12 09:21:39;;;;;;;19.17;10.50;;;;;;;;;;5071020;28;20257;-81
2023/10/12 09:24:14;;;;;;;18.48;10.45;;;;;;;;;;5070880;28;20678;-81
2023/10/12 09:26:49;;;;;;;17.23;10.30;;;;;;;;;;5071496;28;20206;-81
2023/10/12 09:29:27;;;;;;;16.92;10.23;;;;;;;;;;5071788;28;20278;-80
2023/10/12 09:35:02;;;;;;;19.83;10.52;;;;;;;;;;5070482;28;20199;-82
2023/10/12 09:37:29;;;;;;;17.52;10.65;;;;;;;;;;5074772;28;20203;-80
2023/10/12 09:39:58;;;;;;;23.45;11.00;;;;;;;;;;5075168;28;20238;-82
2023/10/12 09:42:30;;;;;;;19.75;8.93;;;;;;;;;;5074995;28;20206;-81
2023/10/12 09:45:03;;;;;;;14.52;8.32;;;;;;;;;;5075182;28;20195;-80
2023/10/12 09:47:50;;;;;;;13.07;8.38;;;;;;;;;;5075006;28;20240;-80
2023/10/12 09:50:17;;;;;;;15.52;8.52;;;;;;;;;;5074754;28;20234;-81
2023/10/12 09:52:57;;;;;;;14.07;7.38;;;;;;;;;;5074656;28;20644;-80
2023/10/12 09:55:32;;;;;;;11.45;7.10;;;;;;;;;;5074575;28;20203;-81
2023/10/12 09:58:12;;;;;;;9.15;6.35;;;;;;;;;;5074881;28;20221;-82
2023/10/12 10:03:20;;;;;;;10.02;5.47;;;;;;;;;;5074413;28;20195;-80
2023/10/12 10:05:55;;;;;;;9.65;4.97;;;;;;;;;;5074350;28;20219;-81
2023/10/12 10:08:26;;;;;;;10.35;5.03;;;;;;;;;;5074322;28;20202;-81
2023/10/12 10:10:58;;;;;;;8.27;4.72;;;;;;;;;;5074770;28;20234;-82
2023/10/12 10:13:37;;;;;;;7.75;4.50;;;;;;;;;;5074714;28;20671;-81
2023/10/12 10:16:08;;;;;;;10.38;5.18;;;;;;;;;;5074218;28;20230;-81
2023/10/12 10:18:46;;;;;;;9.20;5.15;;;;;;;;;;5074086;28;20206;-81
2023/10/12 10:21:15;;;;;;;10.65;4.80;;;;;;;;;;5073972;28;20256;-81
2023/10/12 10:23:48;;;;;;;12.02;5.55;;;;;;;;;;5074209;28;20209;-82
2023/10/12 10:26:20;;;;;;;11.50;4.85;;;;;;;;;;5074203;28;20202;-80
2023/10/12 10:28:55;;;;;;;9.25;4.38;;;;;;;;;;5074096;28;20238;-81
2023/10/12 10:31:28;;;;;;;7.07;3.80;;;;;;;;;;5074288;28;20309;-82
2023/10/12 10:34:01;;;;;;;8.43;3.75;;;;;;;;;;5073808;28;20253;-82
2023/10/12 10:36:34;;;;;;;5.78;3.03;;;;;;;;;;5073733;28;20571;-80
2023/10/12 10:39:04;;;;;;;6.43;3.13;;;;;;;;;;5073939;28;20208;-81
2023/10/12 10:41:46;;;;;;;6.00;3.30;;;;;;;;;;5073962;28;20690;-82
2023/10/12 10:44:16;;;;;;;5.85;3.13;;;;;;;;;;5073894;28;20203;-80
2023/10/12 10:46:45;;;;;;;7.82;3.50;;;;;;;;;;5072775;28;20194;-81
2023/10/12 10:49:15;;;;;;;5.65;2.85;;;;;;;;;;5073375;28;20202;-81
2023/10/12 10:51:46;;;;;;;7.85;2.70;;;;;;;;;;5073724;28;20879;-82
2023/10/12 10:54:18;;;;;;;7.78;3.00;;;;;;;;;;5074446;28;20282;-82
2023/10/12 10:56:49;;;;;;;5.13;2.92;;;;;;;;;;5073348;28;20685;-81
2023/10/12 10:59:18;;;;;;;5.43;2.85;;;;;;;;;;5073488;28;20211;-81
2023/10/12 11:01:48;;;;;;;5.88;2.75;;;;;;;;;;5073623;28;20202;-81
2023/10/12 11:04:31;;;;;;;6.97;2.70;;;;;;;;;;5073096;28;20199;-81
2023/10/12 11:07:03;;;;;;;7.22;2.80;;;;;;;;;;5073426;28;20199;-81
2023/10/12 11:09:49;;;;;;;9.65;2.90;;;;;;;;;;5073292;28;20194;-81
2023/10/12 11:12:17;;;;;;;6.72;2.58;;;;;;;;;;5073283;28;20199;-81
2023/10/12 11:14:52;;;;;;;6.40;2.72;;;;;;;;;;5073449;28;20226;-81
2023/10/12 11:17:20;;;;;;;4.10;2.30;;;;;;;;;;5072716;28;20209;-81
2023/10/12 11:19:49;;;;;;;6.18;2.70;;;;;;;;;;5072859;28;20203;-81
2023/10/12 11:22:17;;;;;;;6.43;2.22;;;;;;;;;;5073115;28;20203;-82
2023/10/12 11:24:47;;;;;;;5.38;2.50;;;;;;;;;;5073294;28;20195;-81
2023/10/12 11:27:30;;;;;;;6.53;2.58;;;;;;;;;;5073151;28;20203;-82
2023/10/12 11:30:06;;;;;;;7.65;2.75;;;;;;;;;;5072782;28;20199;-82
2023/10/12 11:32:34;;;;;;;4.75;2.28;;;;;;;;;;5072905;28;20256;-82
2023/10/12 11:35:01;;;;;;;5.65;2.35;;;;;;;;;;5072832;28;20201;-82
2023/10/12 11:37:29;;;;;;;7.70;2.50;;;;;;;;;;5072637;28;20227;-81
2023/10/12 11:39:57;;;;;;;5.90;2.17;;;;;;;;;;5072535;28;20198;-81
2023/10/12 11:42:25;;;;;;;4.40;2.30;;;;;;;;;;5072552;28;20210;-81
2023/10/12 11:44:52;;;;;;;10.88;2.60;;;;;;;;;;5072446;28;20572;-81
2023/10/12 11:47:38;;;;;;;8.73;2.70;;;;;;;;;;5072770;28;20606;-81
2023/10/12 11:50:09;;;;;;;4.57;2.10;;;;;;;;;;5072227;28;20231;-81
2023/10/12 11:52:39;;;;;;;5.05;2.50;;;;;;;;;;5072518;28;20252;-82
2023/10/12 11:55:07;;;;;;;3.85;2.05;;;;;;;;;;5072116;28;20723;-80
2023/10/12 11:57:35;;;;;;;7.40;2.22;;;;;;;;;;5072037;28;20290;-78
2023/10/12 12:00:20;;;;;;;5.03;2.13;;;;;;;;;;5072393;28;20191;-78
2023/10/12 12:02:52;;;;;;;6.78;2.15;;;;;;;;;;5071777;28;20199;-82
2023/10/12 12:05:19;;;;;;;4.88;2.13;;;;;;;;;;5072506;28;20223;-81
2023/10/12 12:07:51;;;;;;;7.53;2.20;;;;;;;;;;5072403;28;20249;-78
2023/10/12 12:10:24;;;;;;;7.10;2.33;;;;;;;;;;5072153;28;20205;-79
2023/10/12 12:12:52;;;;;;;4.68;2.15;;;;;;;;;;5072115;28;20231;-80
2023/10/12 12:15:19;;;;;;;5.28;2.25;;;;;;;;;;5071888;28;20675;-82
2023/10/12 12:17:47;;;;;;;7.47;2.63;;;;;;;;;;5071497;28;20238;-81
2023/10/12 12:20:21;;;;;;;6.05;2.47;;;;;;;;;;5071854;28;20357;-81
2023/10/12 12:22:48;;;;;;;8.95;2.78;;;;;;;;;;5072018;28;20195;-82
2023/10/12 12:25:18;;;;;;;7.00;2.85;;;;;;;;;;5071705;28;20290;-81
2023/10/12 12:27:49;;;;;;;6.78;2.53;;;;;;;;;;5072010;28;20223;-82
2023/10/12 12:30:29;;;;;;;4.53;2.17;;;;;;;;;;5071847;28;20268;-80
2023/10/12 12:33:00;;;;;;;6.22;2.80;;;;;;;;;;5071751;28;20217;-78
2023/10/12 12:35:29;;;;;;;7.38;2.30;;;;;;;;;;5071581;28;20226;-80
2023/10/12 12:38:00;;;;;;;6.28;2.20;;;;;;;;;;5071619;28;20191;-79
2023/10/12 12:40:30;;;;;;;6.82;2.42;;;;;;;;;;5072015;28;20280;-79
2023/10/12 12:42:57;;;;;;;4.68;2.15;;;;;;;;;;5071850;28;20231;-79
2023/10/12 12:45:25;;;;;;;4.43;2.30;;;;;;;;;;5071761;28;20298;-81
2023/10/12 12:47:55;;;;;;;5.93;2.10;;;;;;;;;;5071496;28;20290;-83
2023/10/12 12:50:22;;;;;;;6.32;2.63;;;;;;;;;;5071513;28;20231;-81
2023/10/12 12:52:51;;;;;;;8.15;2.50;;;;;;;;;;5071649;28;20244;-81
2023/10/12 12:55:21;;;;;;;6.82;2.50;;;;;;;;;;5071685;28;20194;-81
2023/10/12 12:57:48;;;;;;;5.22;2.15;;;;;;;;;;5071467;28;20687;-81
2023/10/12 13:00:19;;;;;;;8.25;2.30;;;;;;;;;;5070934;28;20294;-82
2023/10/12 13:02:47;;;;;;;7.15;2.28;;;;;;;;;;5071336;28;20233;-81
2023/10/12 13:05:14;;;;;;;5.90;1.98;;;;;;;;;;5071609;28;20195;-81
2023/10/12 13:07:43;;;;;;;7.13;2.63;;;;;;;;;;5071692;28;20213;-82
2023/10/12 13:10:12;;;;;;;6.88;2.20;;;;;;;;;;5074677;28;20716;-82
2023/10/12 13:12:40;;;;;;;3.40;2.30;;;;;;;;;;5075519;28;20234;-82
2023/10/12 13:15:09;;;;;;;7.15;2.30;;;;;;;;;;5075211;28;20199;-82
2023/10/12 13:17:37;;;;;;;7.78;2.40;;;;;;;;;;5075673;28;20199;-81
2023/10/12 13:20:04;;;;;;;4.40;2.30;;;;;;;;;;5075379;28;20240;-81
2023/10/12 13:22:31;;;;;;;8.70;2.08;;;;;;;;;;5075579;28;20229;-82
2023/10/12 13:24:58;;;;;;;6.88;2.40;;;;;;;;;;5075244;28;20187;-79
2023/10/12 13:27:29;;;;;;;5.05;2.42;;;;;;;;;;5075112;28;20226;-79
2023/10/12 13:30:00;;;;;;;7.70;2.45;;;;;;;;;;5075781;28;20626;-81
2023/10/12 13:32:27;;;;;;;6.00;2.00;;;;;;;;;;5075380;28;20264;-81
2023/10/12 13:34:57;;;;;;;6.22;2.20;;;;;;;;;;5074896;28;20210;-81
2023/10/12 13:37:27;;;;;;;5.90;2.25;;;;;;;;;;5075426;28;20198;-81
2023/10/12 13:39:55;;;;;;;5.22;2.28;;;;;;;;;;5075217;28;20199;-81
2023/10/12 13:42:23;;;;;;;6.60;2.38;;;;;;;;;;5074923;28;20208;-81
2023/10/12 13:44:52;;;;;;;7.75;2.33;;;;;;;;;;5074603;28;20206;-81
2023/10/12 13:47:19;;;;;;;4.85;2.30;;;;;;;;;;5075088;28;20241;-78
2023/10/12 13:49:47;;;;;;;7.70;2.08;;;;;;;;;;5075071;28;20238;-79
2023/10/12 13:52:14;;;;;;;3.58;1.70;;;;;;;;;;5074980;28;20238;-82
2023/10/12 13:54:45;;;;;;;5.75;1.75;;;;;;;;;;5074827;28;20214;-82
2023/10/12 13:57:14;;;;;;;5.45;1.80;;;;;;;;;;5074665;28;20683;-81
2023/10/12 13:59:45;;;;;;;3.90;1.83;;;;;;;;;;5074349;28;20199;-79
2023/10/12 14:02:14;;;;;;;6.05;2.15;;;;;;;;;;5075059;28;20207;-81
2023/10/12 14:04:41;;;;;;;6.25;1.98;;;;;;;;;;5074855;28;20218;-82
2023/10/12 14:07:09;;;;;;;3.60;1.55;;;;;;;;;;5074459;28;20196;-82
2023/10/12 14:09:39;;;;;;;6.38;1.73;;;;;;;;;;5074354;28;20278;-80
2023/10/12 14:12:06;;;;;;;5.53;1.50;;;;;;;;;;5074326;28;20295;-79
2023/10/12 14:14:33;;;;;;;5.25;1.63;;;;;;;;;;5074182;28;20274;-81
2023/10/12 14:17:04;;;;;;;5.80;1.73;;;;;;;;;;5074378;28;20290;-81
2023/10/12 14:19:35;;;;;;;5.95;1.88;;;;;;;;;;5074380;28;20233;-82
2023/10/12 14:22:07;;;;;;;6.60;1.55;;;;;;;;;;5074474;28;20218;-81
2023/10/12 14:24:35;;;;;;;3.08;1.50;;;;;;;;;;5074631;28;20286;-82
2023/10/12 14:27:06;;;;;;;5.60;1.60;;;;;;;;;;5074167;28;20278;-82
2023/10/12 14:29:33;;;;;;;5.78;1.60;;;;;;;;;;5074121;28;20195;-80
2023/10/12 14:32:02;;;;;;;3.88;1.88;;;;;;;;;;5073869;28;20223;-78
2023/10/12 14:34:29;;;;;;;4.72;1.70;;;;;;;;;;5074019;28;20218;-78
2023/10/12 14:36:58;;;;;;;5.60;1.50;;;;;;;;;;5074024;28;20230;-79
2023/10/12 14:39:29;;;;;;;4.63;1.73;;;;;;;;;;5073657;28;20458;-79
2023/10/12 14:41:57;;;;;;;4.03;1.88;;;;;;;;;;5073588;28;20206;-79
2023/10/12 14:44:24;;;;;;;4.55;1.40;;;;;;;;;;5074477;28;20285;-81
2023/10/12 14:46:54;;;;;;;5.18;1.73;;;;;;;;;;5073878;28;20215;-81
2023/10/12 14:49:21;;;;;;;5.07;1.77;;;;;;;;;;5073584;28;20230;-81
2023/10/12 14:51:48;;;;;;;8.48;1.98;;;;;;;;;;5073920;28;20266;-79
2023/10/12 14:54:17;;;;;;;4.47;1.80;;;;;;;;;;5073889;28;20240;-79
2023/10/12 14:56:46;;;;;;;3.78;1.80;;;;;;;;;;5073484;28;20206;-78
2023/10/12 14:59:13;;;;;;;4.85;1.73;;;;;;;;;;5073945;28;20199;-78
2023/10/12 15:01:41;;;;;;;6.50;1.90;;;;;;;;;;5073911;28;20234;-78
2023/10/12 15:04:08;;;;;;;4.85;1.58;;;;;;;;;;5073858;28;20222;-78
2023/10/12 15:06:35;;;;;;;5.53;1.63;;;;;;;;;;5073687;28;20195;-82
2023/10/12 15:09:04;;;;;;;6.90;1.67;;;;;;;;;;5073233;28;20233;-81
2023/10/12 15:11:34;;;;;;;2.35;1.40;;;;;;;;;;5072690;28;20713;-79
2023/10/12 15:14:01;;;;;;;3.53;1.33;;;;;;;;;;5073736;28;20203;-80
2023/10/12 15:16:30;;;;;;;6.63;1.75;;;;;;;;;;5072998;28;20241;-79
2023/10/12 15:18:58;;;;;;;4.18;1.52;;;;;;;;;;5072853;28;20686;-78
2023/10/12 15:21:25;;;;;;;5.40;1.80;;;;;;;;;;5073512;28;20195;-79
2023/10/12 15:23:53;;;;;;;6.30;1.60;;;;;;;;;;5072770;28;20232;-79
2023/10/12 15:26:22;;;;;;;7.35;1.90;;;;;;;;;;5072927;28;20199;-80